createdAt,value
2023-02-02T00:00:42.117Z,99960.97
2023-02-02T00:05:49.327Z,99966.38
2023-02-02T00:10:52.052Z,99956.94
2023-02-02T00:15:55.060Z,99959.09
2023-02-02T00:20:59.221Z,99962.19
2023-02-02T00:26:01.985Z,99960.44
2023-02-02T00:31:04.908Z,99963.09
2023-02-02T00:36:09.621Z,99960.53
2023-02-02T00:41:12.341Z,99979.19
2023-02-02T00:46:18.888Z,99968.81
2023-02-02T00:51:23.325Z,99968.09
2023-02-02T00:56:26.307Z,99966.75
2023-02-02T01:01:29.377Z,99954.13
2023-02-02T01:06:33.496Z,99985.03
2023-02-02T01:11:37.865Z,99969.47
2023-02-02T01:16:40.817Z,99958.38
2023-02-02T01:21:45.931Z,99958.47
2023-02-02T01:26:48.702Z,99945.63
2023-02-02T01:31:51.651Z,99949.97
2023-02-02T01:36:55.767Z,99954.22
2023-02-02T01:41:58.594Z,99963.88
2023-02-02T01:47:01.718Z,99953.75
2023-02-02T01:52:06.889Z,99952.91
2023-02-02T01:57:14.747Z,99956.44
2023-02-02T02:02:17.654Z,99955.72
2023-02-02T02:07:21.927Z,99968.28
2023-02-02T02:12:26.484Z,99971.59
2023-02-02T02:17:41.751Z,99984.47
2023-02-02T02:23:19.743Z,99973.16
2023-02-02T02:28:49.073Z,99975.84
2023-02-02T02:33:58.645Z,99978.56
2023-02-02T02:39:06.450Z,99985.16
2023-02-02T02:44:12.744Z,99987.66
2023-02-02T02:49:16.875Z,99982.16
2023-02-02T02:54:23.835Z,99988.78
2023-02-02T02:59:35.398Z,99990.22
2023-02-02T03:04:45.193Z,100001.81
2023-02-02T03:09:49.155Z,99999.59
2023-02-02T03:14:51.874Z,100007.16
2023-02-02T03:19:55.937Z,99996.66
2023-02-02T03:24:59.576Z,99999.16
2023-02-02T03:30:02.357Z,99998.31
2023-02-02T03:35:07.369Z,100005.72
2023-02-02T03:40:11.486Z,100006.66
2023-02-02T03:45:14.287Z,100003.63
2023-02-02T03:50:18.834Z,100035.34
2023-02-02T03:55:21.841Z,100024.97
2023-02-02T04:00:24.853Z,100042.91
2023-02-02T04:05:29.082Z,100034.31
2023-02-02T04:10:31.808Z,100030.16
2023-02-02T04:15:34.706Z,100049.72
2023-02-02T04:20:38.856Z,100060.56
2023-02-02T04:25:50.123Z,100059.75
2023-02-02T04:30:53.240Z,100068.47
2023-02-02T04:35:57.414Z,100073.44
2023-02-02T04:41:00.243Z,100075.19
2023-02-02T04:46:06.866Z,100085.50
2023-02-02T04:51:12.234Z,100088.81
2023-02-02T04:56:16.461Z,100093.31
2023-02-02T05:01:20.863Z,100102.88
2023-02-02T05:06:25.202Z,100111.69
2023-02-02T05:11:27.943Z,100121.88
2023-02-02T05:16:30.899Z,100125.53
2023-02-02T05:21:34.946Z,100136.72
2023-02-02T05:26:37.758Z,100144.50
2023-02-02T05:31:40.624Z,100146.16
2023-02-02T05:36:44.724Z,100143.69
2023-02-02T05:41:47.588Z,100159.72
2023-02-02T05:46:50.303Z,100167.91
2023-02-02T05:51:56.094Z,100168.34
2023-02-02T05:57:01.139Z,100174.22
2023-02-02T06:02:04.042Z,100180.22
2023-02-02T06:07:08.380Z,100179.13
2023-02-02T06:12:11.231Z,100196.19
2023-02-02T06:17:13.966Z,100199.16
2023-02-02T06:22:17.981Z,100214.63
2023-02-02T06:27:20.836Z,100206.84
2023-02-02T06:32:23.605Z,100205.81
2023-02-02T06:37:30.576Z,100217.63
2023-02-02T06:42:34.127Z,100209.72
2023-02-02T06:47:36.845Z,100217.31
2023-02-02T06:52:40.989Z,100216.25
2023-02-02T06:57:43.712Z,100221.31
2023-02-02T07:02:46.892Z,100222.38
2023-02-02T07:07:51.480Z,100232.66
2023-02-02T07:12:55.092Z,100242.00
2023-02-02T07:17:57.866Z,100242.59
2023-02-02T07:23:04.447Z,100249.13
2023-02-02T07:28:07.373Z,100258.34
2023-02-02T07:33:10.356Z,100262.50
2023-02-02T07:38:14.431Z,100271.63
2023-02-02T07:43:19.326Z,100266.09
2023-02-02T07:48:22.219Z,100277.91
2023-02-02T07:53:26.390Z,100281.94
2023-02-02T07:58:29.114Z,100286.94
2023-02-02T08:03:31.851Z,100280.44
2023-02-02T08:08:35.935Z,100282.47
2023-02-02T08:13:39.299Z,100292.66
2023-02-02T08:18:42.263Z,100306.47
2023-02-02T08:23:46.845Z,100309.47
2023-02-02T08:28:52.694Z,100309.13
2023-02-02T08:33:55.496Z,100318.75
2023-02-02T08:39:03.376Z,100323.97
2023-02-02T08:44:07.812Z,100332.00
2023-02-02T08:49:14.464Z,100326.44
2023-02-02T08:54:18.592Z,100337.56
2023-02-02T08:59:21.338Z,100335.91
2023-02-02T09:04:24.168Z,100344.06
2023-02-02T09:09:28.254Z,100355.13
2023-02-02T09:14:31.400Z,100359.47
2023-02-02T09:19:34.104Z,100365.41
2023-02-02T09:24:38.216Z,100363.88
2023-02-02T09:29:41.194Z,100372.50
2023-02-02T09:34:44.028Z,100366.47
2023-02-02T09:39:48.351Z,100384.97
2023-02-02T09:45:03.443Z,100383.69
2023-02-02T09:50:19.223Z,100387.81
2023-02-02T09:55:30.046Z,100398.59
2023-02-02T10:00:35.919Z,100394.94
2023-02-02T10:05:47.545Z,100398.94
2023-02-02T10:10:52.200Z,100396.00
2023-02-02T10:16:04.196Z,100413.63
2023-02-02T10:21:09.937Z,100414.59
2023-02-02T10:26:19.063Z,100399.09
2023-02-02T10:31:30.724Z,100421.13
2023-02-02T10:36:41.560Z,100404.91
2023-02-02T10:41:52.839Z,100401.34
2023-02-02T10:46:56.866Z,100411.28
2023-02-02T10:52:05.281Z,100407.25
2023-02-02T10:57:12.997Z,100425.00
2023-02-02T11:02:21.065Z,100418.63
2023-02-02T11:07:24.243Z,100424.41
2023-02-02T11:12:32.339Z,100423.13
2023-02-02T11:17:36.195Z,100426.56
2023-02-02T11:22:39.640Z,100436.16
2023-02-02T11:27:44.849Z,100441.81
2023-02-02T11:32:49.480Z,100449.41
2023-02-02T11:38:02.116Z,100462.91
2023-02-02T11:43:15.248Z,100465.88
2023-02-02T11:48:19.788Z,100463.41
2023-02-02T11:53:28.077Z,100471.25
2023-02-02T11:58:44.931Z,100473.75
2023-02-02T12:03:48.990Z,100476.94
2023-02-02T12:08:54.905Z,100480.25
2023-02-02T12:14:11.995Z,100478.13
2023-02-02T12:19:32.654Z,100500.03
2023-02-02T12:24:36.894Z,100498.47
2023-02-02T12:29:52.620Z,100499.41
2023-02-02T12:35:13.294Z,100512.81
2023-02-02T12:40:32.471Z,100500.41
2023-02-02T12:45:47.998Z,100501.50
2023-02-02T12:50:59.211Z,100493.31
2023-02-02T12:56:08.233Z,100513.38
2023-02-02T13:01:24.223Z,100511.66
2023-02-02T13:06:52.381Z,100520.75
2023-02-02T13:12:02.053Z,100527.00
2023-02-02T13:17:11.881Z,100543.50
2023-02-02T13:22:17.645Z,100549.41
2023-02-02T13:27:21.478Z,100551.53
2023-02-02T13:32:28.104Z,100540.53
2023-02-02T13:37:37.241Z,100549.78
2023-02-02T13:42:45.217Z,100552.25
2023-02-02T13:47:54.105Z,100564.25
2023-02-02T13:53:14.230Z,100572.31
2023-02-02T13:58:37.636Z,100592.19
2023-02-02T14:03:43.322Z,100592.66
2023-02-02T14:08:49.250Z,100597.13
2023-02-02T14:14:11.070Z,100604.38
2023-02-02T14:19:22.343Z,100610.47
2023-02-02T14:24:40.860Z,100613.50
2023-02-02T14:30:00.032Z,100618.47
2023-02-02T14:35:36.398Z,100628.81
2023-02-02T14:40:49.872Z,100638.47
2023-02-02T14:46:24.365Z,100655.06
2023-02-02T14:51:30.167Z,100650.22
2023-02-02T14:56:49.610Z,100643.63
2023-02-02T15:02:02.650Z,100662.81
2023-02-02T15:07:39.364Z,100677.94
2023-02-02T15:12:45.851Z,100684.34
2023-02-02T15:18:01.345Z,100696.16
2023-02-02T15:23:07.182Z,100699.72
2023-02-02T15:28:18.829Z,100721.56
2023-02-02T15:33:27.329Z,100719.31
2023-02-02T15:38:34.782Z,100730.25
2023-02-02T15:43:39.697Z,100745.88
2023-02-02T15:48:43.684Z,100749.44
2023-02-02T15:53:49.272Z,100763.28
2023-02-02T15:58:54.834Z,100782.97
2023-02-02T16:04:02.924Z,100790.06
2023-02-02T16:09:06.940Z,100804.00
2023-02-02T16:14:17.685Z,100815.53
2023-02-02T16:19:22.210Z,100828.88
2023-02-02T16:24:27.092Z,100847.06
2023-02-02T16:29:31.622Z,100858.16
2023-02-02T16:34:47.548Z,100855.13
2023-02-02T16:39:50.497Z,100867.13
2023-02-02T16:44:55.501Z,100882.84
2023-02-02T16:50:20.344Z,100876.09
2023-02-02T16:55:24.076Z,100882.97
2023-02-02T17:00:30.083Z,100893.16
2023-02-02T17:05:34.011Z,100915.13
2023-02-02T17:10:38.243Z,100924.13
2023-02-02T17:15:42.451Z,100926.72
2023-02-02T17:20:45.432Z,100935.38
2023-02-02T17:25:48.790Z,100953.22
2023-02-02T17:30:55.627Z,100950.19
2023-02-02T17:35:58.447Z,100956.91
2023-02-02T17:41:02.620Z,100964.44
2023-02-02T17:46:06.889Z,100967.50
2023-02-02T17:51:15.751Z,100974.84
2023-02-02T17:56:18.980Z,100968.16
2023-02-02T18:01:23.405Z,100965.56
2023-02-02T18:06:26.260Z,100976.25
2023-02-02T18:11:30.026Z,100985.25
2023-02-02T18:16:34.297Z,100984.88
2023-02-02T18:21:37.698Z,100984.69
2023-02-02T18:26:40.595Z,100980.69
2023-02-02T18:31:44.968Z,100980.69
2023-02-02T18:36:47.788Z,100979.94
2023-02-02T18:41:50.722Z,100985.03
2023-02-02T18:46:54.853Z,100999.72
2023-02-02T18:51:57.611Z,100992.31
2023-02-02T18:57:00.465Z,100992.47
2023-02-02T19:02:04.674Z,100989.72
2023-02-02T19:07:25.311Z,100983.00
2023-02-02T19:12:29.308Z,100977.63
2023-02-02T19:17:33.992Z,100980.59
2023-02-02T19:22:36.793Z,100989.03
2023-02-02T19:27:39.845Z,100994.34
2023-02-02T19:32:44.283Z,100992.94
2023-02-02T19:37:48.426Z,100989.53
2023-02-02T19:42:56.444Z,100989.13
2023-02-02T19:48:02.450Z,100980.41
2023-02-02T19:53:14.745Z,100973.09
2023-02-02T19:58:20.508Z,100988.03
2023-02-02T20:03:27.566Z,100997.22
2023-02-02T20:08:34.396Z,100994.50
2023-02-02T20:13:41.759Z,100992.88
2023-02-02T20:18:50.755Z,100997.97
2023-02-02T20:23:53.715Z,101019.69
2023-02-02T20:28:57.988Z,101025.00
2023-02-02T20:34:02.311Z,101025.25
2023-02-02T20:39:22.066Z,101024.72
2023-02-02T20:44:29.094Z,101008.91
2023-02-02T20:49:33.429Z,101010.56
2023-02-02T20:54:36.201Z,101018.47
2023-02-02T20:59:38.940Z,101012.16
2023-02-02T21:04:46.719Z,101002.13
2023-02-02T21:09:50.985Z,101002.34
2023-02-02T21:14:54.110Z,100996.47
2023-02-02T21:19:58.355Z,100990.06
2023-02-02T21:25:01.144Z,100987.19
2023-02-02T21:30:04.425Z,100988.47
2023-02-02T21:35:09.102Z,100990.16
2023-02-02T21:40:14.416Z,101000.47
2023-02-02T21:45:34.295Z,100985.88
2023-02-02T21:50:42.051Z,100996.75
2023-02-02T21:55:45.100Z,100986.19
2023-02-02T22:00:48.492Z,100988.13
2023-02-02T22:05:52.714Z,100987.28
2023-02-02T22:10:55.476Z,100982.53
2023-02-02T22:15:58.338Z,100978.56
2023-02-02T22:21:02.431Z,100978.22
2023-02-02T22:26:05.431Z,100965.47
2023-02-02T22:31:08.257Z,100961.00
2023-02-02T22:36:12.556Z,100962.34
2023-02-02T22:41:15.640Z,100952.47
2023-02-02T22:46:18.427Z,100943.84
2023-02-02T22:51:22.566Z,100946.44
2023-02-02T22:56:26.136Z,100943.69
2023-02-02T23:01:28.940Z,100951.47
2023-02-02T23:06:33.008Z,100933.09
2023-02-02T23:11:35.774Z,100950.59
2023-02-02T23:16:38.581Z,100949.50
2023-02-02T23:21:42.838Z,100952.03
2023-02-02T23:26:45.624Z,100951.47
2023-02-02T23:31:48.443Z,100948.41
2023-02-02T23:36:53.573Z,100948.03
2023-02-02T23:41:56.402Z,100946.06
2023-02-02T23:46:59.539Z,100930.41
2023-02-02T23:52:03.898Z,100926.13
2023-02-02T23:57:06.625Z,100924.94
